sensor_id;sensor_type;location;lat;lon;timestamp;P1;durP1;ratioP1;P2;durP2;ratioP2
42146;SDS011;27815;43.410;11.852;2023-06-14T00:02:39;9.75;;;9.07;;
42146;SDS011;27815;43.410;11.852;2023-06-14T00:06:44;9.60;;;8.95;;
42146;SDS011;27815;43.410;11.852;2023-06-14T00:10:59;8.98;;;8.40;;
42146;SDS011;27815;43.410;11.852;2023-06-14T00:15:19;10.30;;;9.57;;
42146;SDS011;27815;43.410;11.852;2023-06-14T00:19:39;9.48;;;8.82;;
42146;SDS011;27815;43.410;11.852;2023-06-14T00:24:03;9.10;;;8.38;;
42146;SDS011;27815;43.410;11.852;2023-06-14T00:28:32;9.52;;;8.90;;
42146;SDS011;27815;43.410;11.852;2023-06-14T00:32:58;9.82;;;8.93;;
42146;SDS011;27815;43.410;11.852;2023-06-14T00:37:41;9.32;;;8.63;;
42146;SDS011;27815;43.410;11.852;2023-06-14T00:42:11;9.43;;;8.63;;
42146;SDS011;27815;43.410;11.852;2023-06-14T00:47:01;8.43;;;7.63;;
42146;SDS011;27815;43.410;11.852;2023-06-14T00:51:21;8.77;;;8.13;;
42146;SDS011;27815;43.410;11.852;2023-06-14T00:55:27;8.57;;;7.93;;
42146;SDS011;27815;43.410;11.852;2023-06-14T00:59:51;9.20;;;8.60;;
42146;SDS011;27815;43.410;11.852;2023-06-14T01:04:18;9.38;;;8.70;;
42146;SDS011;27815;43.410;11.852;2023-06-14T01:15:13;7.07;;;6.55;;
42146;SDS011;27815;43.410;11.852;2023-06-14T01:20:44;6.47;;;5.97;;
42146;SDS011;27815;43.410;11.852;2023-06-14T01:25:59;6.20;;;5.70;;
42146;SDS011;27815;43.410;11.852;2023-06-14T01:30:41;8.10;;;5.72;;
42146;SDS011;27815;43.410;11.852;2023-06-14T01:36:03;5.20;;;4.75;;
42146;SDS011;27815;43.410;11.852;2023-06-14T01:41:30;6.13;;;5.32;;
42146;SDS011;27815;43.410;11.852;2023-06-14T01:46:32;5.63;;;5.13;;
42146;SDS011;27815;43.410;11.852;2023-06-14T01:51:26;5.43;;;4.97;;
42146;SDS011;27815;43.410;11.852;2023-06-14T01:56:07;6.03;;;5.47;;
42146;SDS011;27815;43.410;11.852;2023-06-14T02:07:31;5.53;;;4.90;;
42146;SDS011;27815;43.410;11.852;2023-06-14T02:12:13;6.38;;;5.38;;
42146;SDS011;27815;43.410;11.852;2023-06-14T02:16:53;6.80;;;6.13;;
42146;SDS011;27815;43.410;11.852;2023-06-14T02:21:05;6.57;;;5.97;;
42146;SDS011;27815;43.410;11.852;2023-06-14T02:25:47;7.05;;;6.45;;
42146;SDS011;27815;43.410;11.852;2023-06-14T02:30:45;7.57;;;6.57;;
42146;SDS011;27815;43.410;11.852;2023-06-14T02:35:48;7.05;;;6.32;;
42146;SDS011;27815;43.410;11.852;2023-06-14T02:40:05;7.20;;;6.60;;
42146;SDS011;27815;43.410;11.852;2023-06-14T02:44:19;6.63;;;6.10;;
42146;SDS011;27815;43.410;11.852;2023-06-14T02:48:58;7.97;;;7.20;;
42146;SDS011;27815;43.410;11.852;2023-06-14T02:53:06;7.88;;;7.25;;
42146;SDS011;27815;43.410;11.852;2023-06-14T02:57:15;7.38;;;6.78;;
42146;SDS011;27815;43.410;11.852;2023-06-14T03:01:51;7.38;;;6.78;;
42146;SDS011;27815;43.410;11.852;2023-06-14T03:06:02;8.18;;;7.55;;
42146;SDS011;27815;43.410;11.852;2023-06-14T03:10:14;7.63;;;6.80;;
42146;SDS011;27815;43.410;11.852;2023-06-14T03:14:22;7.10;;;6.50;;
42146;SDS011;27815;43.410;11.852;2023-06-14T03:18:25;7.60;;;7.00;;
42146;SDS011;27815;43.410;11.852;2023-06-14T03:22:31;7.60;;;6.97;;
42146;SDS011;27815;43.410;11.852;2023-06-14T03:26:44;7.38;;;6.75;;
42146;SDS011;27815;43.410;11.852;2023-06-14T03:30:50;7.80;;;7.07;;
42146;SDS011;27815;43.410;11.852;2023-06-14T03:34:54;9.68;;;8.10;;
42146;SDS011;27815;43.410;11.852;2023-06-14T03:43:09;5.80;;;5.20;;
42146;SDS011;27815;43.410;11.852;2023-06-14T03:47:14;7.60;;;6.75;;
42146;SDS011;27815;43.410;11.852;2023-06-14T03:51:23;9.02;;;8.38;;
42146;SDS011;27815;43.410;11.852;2023-06-14T03:55:29;9.32;;;8.07;;
42146;SDS011;27815;43.410;11.852;2023-06-14T03:59:37;8.35;;;7.65;;
42146;SDS011;27815;43.410;11.852;2023-06-14T04:03:40;9.88;;;9.05;;
42146;SDS011;27815;43.410;11.852;2023-06-14T04:07:44;9.48;;;8.77;;
42146;SDS011;27815;43.410;11.852;2023-06-14T04:11:48;10.93;;;10.05;;
42146;SDS011;27815;43.410;11.852;2023-06-14T04:15:52;11.27;;;10.43;;
42146;SDS011;27815;43.410;11.852;2023-06-14T04:20:06;10.80;;;9.65;;
42146;SDS011;27815;43.410;11.852;2023-06-14T04:24:12;10.95;;;10.18;;
42146;SDS011;27815;43.410;11.852;2023-06-14T04:28:32;11.25;;;10.45;;
42146;SDS011;27815;43.410;11.852;2023-06-14T04:33:00;11.52;;;10.80;;
42146;SDS011;27815;43.410;11.852;2023-06-14T04:37:19;12.05;;;11.00;;
42146;SDS011;27815;43.410;11.852;2023-06-14T04:41:29;13.65;;;12.73;;
42146;SDS011;27815;43.410;11.852;2023-06-14T04:45:36;15.13;;;14.15;;
42146;SDS011;27815;43.410;11.852;2023-06-14T04:49:45;15.32;;;14.35;;
42146;SDS011;27815;43.410;11.852;2023-06-14T04:53:54;14.65;;;13.50;;
42146;SDS011;27815;43.410;11.852;2023-06-14T04:58:04;14.88;;;13.75;;
42146;SDS011;27815;43.410;11.852;2023-06-14T05:02:10;15.55;;;14.48;;
42146;SDS011;27815;43.410;11.852;2023-06-14T05:06:14;17.67;;;16.15;;
42146;SDS011;27815;43.410;11.852;2023-06-14T05:10:20;16.40;;;15.15;;
42146;SDS011;27815;43.410;11.852;2023-06-14T05:14:30;19.70;;;18.08;;
42146;SDS011;27815;43.410;11.852;2023-06-14T05:18:33;20.50;;;19.30;;
42146;SDS011;27815;43.410;11.852;2023-06-14T05:22:40;22.23;;;20.90;;
42146;SDS011;27815;43.410;11.852;2023-06-14T05:26:44;22.75;;;21.10;;
42146;SDS011;27815;43.410;11.852;2023-06-14T05:30:52;23.92;;;22.30;;
42146;SDS011;27815;43.410;11.852;2023-06-14T05:35:02;26.00;;;24.15;;
42146;SDS011;27815;43.410;11.852;2023-06-14T05:39:09;27.08;;;25.35;;
42146;SDS011;27815;43.410;11.852;2023-06-14T05:43:13;30.25;;;28.42;;
42146;SDS011;27815;43.410;11.852;2023-06-14T05:47:18;30.25;;;28.40;;
42146;SDS011;27815;43.410;11.852;2023-06-14T05:51:22;33.90;;;31.95;;
42146;SDS011;27815;43.410;11.852;2023-06-14T05:55:29;34.60;;;32.63;;
42146;SDS011;27815;43.410;11.852;2023-06-14T05:59:37;34.05;;;32.42;;
42146;SDS011;27815;43.410;11.852;2023-06-14T06:03:41;38.95;;;37.00;;
42146;SDS011;27815;43.410;11.852;2023-06-14T06:07:49;38.33;;;36.20;;
42146;SDS011;27815;43.410;11.852;2023-06-14T06:11:55;39.22;;;37.33;;
42146;SDS011;27815;43.410;11.852;2023-06-14T06:15:58;35.25;;;33.55;;
42146;SDS011;27815;43.410;11.852;2023-06-14T06:20:03;33.63;;;31.98;;
42146;SDS011;27815;43.410;11.852;2023-06-14T06:24:10;29.08;;;27.50;;
42146;SDS011;27815;43.410;11.852;2023-06-14T06:28:15;32.10;;;30.48;;
42146;SDS011;27815;43.410;11.852;2023-06-14T06:32:19;32.05;;;30.55;;
42146;SDS011;27815;43.410;11.852;2023-06-14T06:36:22;31.25;;;29.50;;
42146;SDS011;27815;43.410;11.852;2023-06-14T06:40:26;28.55;;;27.13;;
42146;SDS011;27815;43.410;11.852;2023-06-14T06:44:30;29.83;;;28.25;;
42146;SDS011;27815;43.410;11.852;2023-06-14T06:48:40;29.25;;;27.85;;
42146;SDS011;27815;43.410;11.852;2023-06-14T06:52:48;32.25;;;30.73;;
42146;SDS011;27815;43.410;11.852;2023-06-14T06:56:53;27.25;;;25.85;;
42146;SDS011;27815;43.410;11.852;2023-06-14T07:00:58;23.10;;;21.83;;
42146;SDS011;27815;43.410;11.852;2023-06-14T07:05:03;17.55;;;16.60;;
42146;SDS011;27815;43.410;11.852;2023-06-14T07:09:09;15.38;;;14.40;;
42146;SDS011;27815;43.410;11.852;2023-06-14T07:13:40;14.88;;;14.00;;
42146;SDS011;27815;43.410;11.852;2023-06-14T07:18:13;14.55;;;13.65;;
42146;SDS011;27815;43.410;11.852;2023-06-14T07:22:21;16.05;;;14.85;;
42146;SDS011;27815;43.410;11.852;2023-06-14T07:26:32;16.15;;;15.18;;
42146;SDS011;27815;43.410;11.852;2023-06-14T07:30:44;16.17;;;15.27;;
42146;SDS011;27815;43.410;11.852;2023-06-14T07:34:56;16.55;;;15.55;;
42146;SDS011;27815;43.410;11.852;2023-06-14T07:39:00;16.17;;;15.18;;
42146;SDS011;27815;43.410;11.852;2023-06-14T07:47:32;15.23;;;14.32;;
42146;SDS011;27815;43.410;11.852;2023-06-14T07:51:49;18.30;;;17.30;;
42146;SDS011;27815;43.410;11.852;2023-06-14T07:55:55;17.73;;;16.73;;
42146;SDS011;27815;43.410;11.852;2023-06-14T08:00:00;16.73;;;15.73;;
42146;SDS011;27815;43.410;11.852;2023-06-14T08:04:13;17.25;;;16.10;;
42146;SDS011;27815;43.410;11.852;2023-06-14T08:08:24;16.55;;;15.65;;
42146;SDS011;27815;43.410;11.852;2023-06-14T08:12:29;16.98;;;16.02;;
42146;SDS011;27815;43.410;11.852;2023-06-14T08:16:51;17.48;;;16.48;;
42146;SDS011;27815;43.410;11.852;2023-06-14T08:21:03;17.33;;;16.42;;
42146;SDS011;27815;43.410;11.852;2023-06-14T08:25:25;17.33;;;16.33;;
42146;SDS011;27815;43.410;11.852;2023-06-14T08:29:56;18.00;;;17.00;;
42146;SDS011;27815;43.410;11.852;2023-06-14T08:34:41;17.70;;;16.70;;
42146;SDS011;27815;43.410;11.852;2023-06-14T08:39:33;17.60;;;16.70;;
42146;SDS011;27815;43.410;11.852;2023-06-14T08:44:47;17.88;;;16.95;;
42146;SDS011;27815;43.410;11.852;2023-06-14T08:51:11;18.83;;;17.83;;
42146;SDS011;27815;43.410;11.852;2023-06-14T08:56:22;18.63;;;17.67;;
42146;SDS011;27815;43.410;11.852;2023-06-14T09:01:48;16.90;;;16.00;;
42146;SDS011;27815;43.410;11.852;2023-06-14T09:07:56;14.50;;;13.60;;
42146;SDS011;27815;43.410;11.852;2023-06-14T09:24:25;10.43;;;9.73;;
42146;SDS011;27815;43.410;11.852;2023-06-14T09:28:29;10.88;;;10.07;;
42146;SDS011;27815;43.410;11.852;2023-06-14T09:32:32;11.00;;;10.18;;
42146;SDS011;27815;43.410;11.852;2023-06-14T09:36:43;9.73;;;8.82;;
42146;SDS011;27815;43.410;11.852;2023-06-14T09:40:49;8.48;;;7.88;;
42146;SDS011;27815;43.410;11.852;2023-06-14T09:44:59;7.78;;;6.97;;
42146;SDS011;27815;43.410;11.852;2023-06-14T09:49:02;7.38;;;6.78;;
42146;SDS011;27815;43.410;11.852;2023-06-14T09:53:10;7.35;;;6.78;;
42146;SDS011;27815;43.410;11.852;2023-06-14T09:57:15;7.70;;;6.63;;
42146;SDS011;27815;43.410;11.852;2023-06-14T10:01:19;6.93;;;6.43;;
42146;SDS011;27815;43.410;11.852;2023-06-14T10:05:24;6.78;;;6.22;;
42146;SDS011;27815;43.410;11.852;2023-06-14T10:09:30;6.95;;;6.35;;
42146;SDS011;27815;43.410;11.852;2023-06-14T10:13:37;7.03;;;6.53;;
42146;SDS011;27815;43.410;11.852;2023-06-14T10:17:46;7.28;;;6.68;;
42146;SDS011;27815;43.410;11.852;2023-06-14T10:21:58;6.95;;;6.43;;
42146;SDS011;27815;43.410;11.852;2023-06-14T10:26:20;7.75;;;7.05;;
42146;SDS011;27815;43.410;11.852;2023-06-14T10:30:27;7.07;;;6.55;;
42146;SDS011;27815;43.410;11.852;2023-06-14T10:34:33;7.10;;;6.60;;
42146;SDS011;27815;43.410;11.852;2023-06-14T10:38:44;7.90;;;7.30;;
42146;SDS011;27815;43.410;11.852;2023-06-14T10:42:53;6.73;;;6.23;;
42146;SDS011;27815;43.410;11.852;2023-06-14T10:47:00;7.20;;;6.68;;
42146;SDS011;27815;43.410;11.852;2023-06-14T10:51:04;6.78;;;6.30;;
42146;SDS011;27815;43.410;11.852;2023-06-14T10:55:16;6.93;;;6.43;;
42146;SDS011;27815;43.410;11.852;2023-06-14T10:59:23;7.05;;;6.45;;
42146;SDS011;27815;43.410;11.852;2023-06-14T11:16:16;6.13;;;5.63;;
42146;SDS011;27815;43.410;11.852;2023-06-14T11:20:23;5.67;;;5.17;;
42146;SDS011;27815;43.410;11.852;2023-06-14T11:24:31;5.70;;;5.20;;
42146;SDS011;27815;43.410;11.852;2023-06-14T11:28:40;6.85;;;6.25;;
42146;SDS011;27815;43.410;11.852;2023-06-14T11:32:50;6.85;;;6.25;;
42146;SDS011;27815;43.410;11.852;2023-06-14T11:36:57;7.13;;;6.43;;
42146;SDS011;27815;43.410;11.852;2023-06-14T11:41:01;6.70;;;6.05;;
42146;SDS011;27815;43.410;11.852;2023-06-14T11:45:06;6.57;;;5.97;;
42146;SDS011;27815;43.410;11.852;2023-06-14T11:49:11;7.63;;;6.93;;
42146;SDS011;27815;43.410;11.852;2023-06-14T11:53:14;7.57;;;6.88;;
42146;SDS011;27815;43.410;11.852;2023-06-14T11:57:19;6.68;;;6.07;;
42146;SDS011;27815;43.410;11.852;2023-06-14T12:01:24;7.07;;;6.47;;
42146;SDS011;27815;43.410;11.852;2023-06-14T12:05:28;6.63;;;6.03;;
42146;SDS011;27815;43.410;11.852;2023-06-14T12:09:31;7.55;;;6.85;;
42146;SDS011;27815;43.410;11.852;2023-06-14T12:13:37;8.32;;;7.63;;
42146;SDS011;27815;43.410;11.852;2023-06-14T12:17:42;7.68;;;7.07;;
42146;SDS011;27815;43.410;11.852;2023-06-14T12:21:46;8.10;;;7.45;;
42146;SDS011;27815;43.410;11.852;2023-06-14T12:25:53;9.63;;;8.90;;
42146;SDS011;27815;43.410;11.852;2023-06-14T12:30:00;8.93;;;8.32;;
42146;SDS011;27815;43.410;11.852;2023-06-14T12:34:07;9.02;;;8.43;;
42146;SDS011;27815;43.410;11.852;2023-06-14T12:38:10;9.90;;;9.00;;
42146;SDS011;27815;43.410;11.852;2023-06-14T12:42:13;9.68;;;8.98;;
42146;SDS011;27815;43.410;11.852;2023-06-14T12:46:17;10.35;;;9.65;;
42146;SDS011;27815;43.410;11.852;2023-06-14T12:50:20;10.23;;;9.52;;
42146;SDS011;27815;43.410;11.852;2023-06-14T12:54:27;10.00;;;9.30;;
42146;SDS011;27815;43.410;11.852;2023-06-14T12:58:43;10.70;;;10.00;;
42146;SDS011;27815;43.410;11.852;2023-06-14T13:02:46;9.52;;;8.82;;
42146;SDS011;27815;43.410;11.852;2023-06-14T13:06:49;9.25;;;8.57;;
42146;SDS011;27815;43.410;11.852;2023-06-14T13:10:52;8.25;;;7.75;;
42146;SDS011;27815;43.410;11.852;2023-06-14T13:14:56;8.32;;;7.82;;
42146;SDS011;27815;43.410;11.852;2023-06-14T13:18:59;9.07;;;8.48;;
42146;SDS011;27815;43.410;11.852;2023-06-14T13:23:02;7.88;;;7.38;;
42146;SDS011;27815;43.410;11.852;2023-06-14T13:27:08;7.13;;;6.63;;
42146;SDS011;27815;43.410;11.852;2023-06-14T13:31:11;5.60;;;5.18;;
42146;SDS011;27815;43.410;11.852;2023-06-14T13:35:14;4.85;;;4.45;;
42146;SDS011;27815;43.410;11.852;2023-06-14T13:39:17;5.18;;;4.78;;
42146;SDS011;27815;43.410;11.852;2023-06-14T13:43:20;5.43;;;5.03;;
42146;SDS011;27815;43.410;11.852;2023-06-14T13:47:25;4.38;;;4.07;;
42146;SDS011;27815;43.410;11.852;2023-06-14T13:51:28;4.65;;;4.25;;
42146;SDS011;27815;43.410;11.852;2023-06-14T13:55:31;4.72;;;4.32;;
42146;SDS011;27815;43.410;11.852;2023-06-14T13:59:35;5.32;;;4.82;;
42146;SDS011;27815;43.410;11.852;2023-06-14T14:03:38;4.60;;;4.25;;
42146;SDS011;27815;43.410;11.852;2023-06-14T14:07:41;5.07;;;4.68;;
42146;SDS011;27815;43.410;11.852;2023-06-14T14:11:44;4.63;;;4.22;;
42146;SDS011;27815;43.410;11.852;2023-06-14T14:15:48;4.95;;;4.55;;
42146;SDS011;27815;43.410;11.852;2023-06-14T14:19:54;5.45;;;4.95;;
42146;SDS011;27815;43.410;11.852;2023-06-14T14:23:58;4.55;;;4.18;;
42146;SDS011;27815;43.410;11.852;2023-06-14T14:28:03;4.47;;;4.18;;
42146;SDS011;27815;43.410;11.852;2023-06-14T14:32:14;5.32;;;4.82;;
42146;SDS011;27815;43.410;11.852;2023-06-14T14:36:18;4.47;;;4.07;;
42146;SDS011;27815;43.410;11.852;2023-06-14T14:40:22;5.00;;;4.60;;
42146;SDS011;27815;43.410;11.852;2023-06-14T14:44:27;5.18;;;4.78;;
42146;SDS011;27815;43.410;11.852;2023-06-14T14:48:35;4.82;;;4.43;;
42146;SDS011;27815;43.410;11.852;2023-06-14T14:52:41;5.27;;;4.77;;
42146;SDS011;27815;43.410;11.852;2023-06-14T14:56:47;5.78;;;5.28;;
42146;SDS011;27815;43.410;11.852;2023-06-14T15:00:52;5.03;;;4.55;;
42146;SDS011;27815;43.410;11.852;2023-06-14T15:04:57;5.05;;;4.65;;
42146;SDS011;27815;43.410;11.852;2023-06-14T15:09:05;4.43;;;4.03;;
42146;SDS011;27815;43.410;11.852;2023-06-14T15:13:11;4.70;;;4.30;;
42146;SDS011;27815;43.410;11.852;2023-06-14T15:17:15;6.32;;;4.90;;
42146;SDS011;27815;43.410;11.852;2023-06-14T15:21:20;5.07;;;4.68;;
42146;SDS011;27815;43.410;11.852;2023-06-14T15:25:29;4.95;;;4.55;;
42146;SDS011;27815;43.410;11.852;2023-06-14T15:29:34;5.05;;;4.55;;
42146;SDS011;27815;43.410;11.852;2023-06-14T15:33:39;5.15;;;4.75;;
42146;SDS011;27815;43.410;11.852;2023-06-14T15:37:47;5.07;;;4.68;;
42146;SDS011;27815;43.410;11.852;2023-06-14T15:42:02;5.35;;;4.07;;
42146;SDS011;27815;43.410;11.852;2023-06-14T15:46:07;4.50;;;4.10;;
42146;SDS011;27815;43.410;11.852;2023-06-14T15:50:18;4.43;;;4.03;;
42146;SDS011;27815;43.410;11.852;2023-06-14T15:54:45;4.50;;;4.10;;
42146;SDS011;27815;43.410;11.852;2023-06-14T15:58:56;4.50;;;4.10;;
42146;SDS011;27815;43.410;11.852;2023-06-14T16:03:06;4.40;;;4.05;;
42146;SDS011;27815;43.410;11.852;2023-06-14T16:07:36;4.93;;;4.38;;
42146;SDS011;27815;43.410;11.852;2023-06-14T16:11:43;4.57;;;4.15;;
42146;SDS011;27815;43.410;11.852;2023-06-14T16:15:47;4.65;;;4.25;;
42146;SDS011;27815;43.410;11.852;2023-06-14T16:19:54;4.80;;;4.28;;
42146;SDS011;27815;43.410;11.852;2023-06-14T16:23:59;5.05;;;4.65;;
42146;SDS011;27815;43.410;11.852;2023-06-14T16:28:19;4.47;;;4.07;;
42146;SDS011;27815;43.410;11.852;2023-06-14T16:32:22;4.72;;;4.32;;
42146;SDS011;27815;43.410;11.852;2023-06-14T16:36:28;4.25;;;3.85;;
42146;SDS011;27815;43.410;11.852;2023-06-14T16:40:34;4.25;;;3.85;;
42146;SDS011;27815;43.410;11.852;2023-06-14T16:44:38;4.28;;;3.88;;
42146;SDS011;27815;43.410;11.852;2023-06-14T16:48:43;4.93;;;4.03;;
42146;SDS011;27815;43.410;11.852;2023-06-14T16:52:52;4.63;;;4.22;;
42146;SDS011;27815;43.410;11.852;2023-06-14T16:56:57;4.88;;;4.47;;
42146;SDS011;27815;43.410;11.852;2023-06-14T17:01:00;5.25;;;4.75;;
42146;SDS011;27815;43.410;11.852;2023-06-14T17:05:03;4.53;;;4.13;;
42146;SDS011;27815;43.410;11.852;2023-06-14T17:09:11;5.38;;;4.53;;
42146;SDS011;27815;43.410;11.852;2023-06-14T17:13:15;5.07;;;4.57;;
42146;SDS011;27815;43.410;11.852;2023-06-14T17:17:23;6.40;;;4.53;;
42146;SDS011;27815;43.410;11.852;2023-06-14T17:21:40;4.82;;;4.32;;
42146;SDS011;27815;43.410;11.852;2023-06-14T17:25:48;4.43;;;4.03;;
42146;SDS011;27815;43.410;11.852;2023-06-14T17:29:51;4.43;;;4.03;;
42146;SDS011;27815;43.410;11.852;2023-06-14T17:33:54;4.32;;;3.92;;
42146;SDS011;27815;43.410;11.852;2023-06-14T17:38:17;5.55;;;3.70;;
42146;SDS011;27815;43.410;11.852;2023-06-14T17:42:46;4.10;;;3.58;;
42146;SDS011;27815;43.410;11.852;2023-06-14T17:46:55;4.00;;;3.47;;
42146;SDS011;27815;43.410;11.852;2023-06-14T17:51:08;4.40;;;4.00;;
42146;SDS011;27815;43.410;11.852;2023-06-14T17:55:19;4.30;;;3.88;;
42146;SDS011;27815;43.410;11.852;2023-06-14T17:59:26;4.03;;;3.63;;
42146;SDS011;27815;43.410;11.852;2023-06-14T18:03:29;4.00;;;3.60;;
42146;SDS011;27815;43.410;11.852;2023-06-14T18:07:34;5.35;;;4.28;;
42146;SDS011;27815;43.410;11.852;2023-06-14T18:11:47;4.65;;;4.25;;
42146;SDS011;27815;43.410;11.852;2023-06-14T18:15:53;4.57;;;4.18;;
42146;SDS011;27815;43.410;11.852;2023-06-14T18:19:59;4.65;;;4.25;;
42146;SDS011;27815;43.410;11.852;2023-06-14T18:24:06;4.75;;;4.35;;
42146;SDS011;27815;43.410;11.852;2023-06-14T18:28:09;4.75;;;4.30;;
42146;SDS011;27815;43.410;11.852;2023-06-14T18:32:13;4.65;;;4.25;;
42146;SDS011;27815;43.410;11.852;2023-06-14T18:36:18;4.97;;;4.53;;
42146;SDS011;27815;43.410;11.852;2023-06-14T18:40:23;5.07;;;4.68;;
42146;SDS011;27815;43.410;11.852;2023-06-14T18:44:29;5.72;;;5.22;;
42146;SDS011;27815;43.410;11.852;2023-06-14T18:48:34;6.50;;;5.45;;
42146;SDS011;27815;43.410;11.852;2023-06-14T18:52:38;5.65;;;5.15;;
42146;SDS011;27815;43.410;11.852;2023-06-14T18:56:43;6.05;;;5.55;;
42146;SDS011;27815;43.410;11.852;2023-06-14T19:00:49;6.75;;;6.25;;
42146;SDS011;27815;43.410;11.852;2023-06-14T19:05:05;7.22;;;6.72;;
42146;SDS011;27815;43.410;11.852;2023-06-14T19:09:10;7.35;;;6.75;;
42146;SDS011;27815;43.410;11.852;2023-06-14T19:13:15;7.30;;;6.80;;
42146;SDS011;27815;43.410;11.852;2023-06-14T19:17:18;7.15;;;6.65;;
42146;SDS011;27815;43.410;11.852;2023-06-14T19:21:25;7.53;;;6.63;;
42146;SDS011;27815;43.410;11.852;2023-06-14T19:30:35;7.70;;;7.13;;
42146;SDS011;27815;43.410;11.852;2023-06-14T19:34:43;8.75;;;8.05;;
42146;SDS011;27815;43.410;11.852;2023-06-14T19:45:07;8.75;;;8.15;;
42146;SDS011;27815;43.410;11.852;2023-06-14T19:49:27;8.90;;;8.30;;
42146;SDS011;27815;43.410;11.852;2023-06-14T19:53:36;9.40;;;8.80;;
42146;SDS011;27815;43.410;11.852;2023-06-14T19:57:50;7.65;;;6.95;;
42146;SDS011;27815;43.410;11.852;2023-06-14T20:01:59;7.88;;;7.38;;
42146;SDS011;27815;43.410;11.852;2023-06-14T20:06:10;8.90;;;8.30;;
42146;SDS011;27815;43.410;11.852;2023-06-14T20:10:18;9.23;;;8.63;;
42146;SDS011;27815;43.410;11.852;2023-06-14T20:14:26;8.88;;;8.27;;
42146;SDS011;27815;43.410;11.852;2023-06-14T20:18:32;8.90;;;8.27;;
42146;SDS011;27815;43.410;11.852;2023-06-14T20:22:37;8.70;;;8.10;;
42146;SDS011;27815;43.410;11.852;2023-06-14T20:26:44;8.45;;;7.75;;
42146;SDS011;27815;43.410;11.852;2023-06-14T20:30:48;7.93;;;7.35;;
42146;SDS011;27815;43.410;11.852;2023-06-14T20:34:56;7.68;;;7.18;;
42146;SDS011;27815;43.410;11.852;2023-06-14T20:39:01;8.30;;;7.60;;
42146;SDS011;27815;43.410;11.852;2023-06-14T20:43:05;8.70;;;8.20;;
42146;SDS011;27815;43.410;11.852;2023-06-14T20:47:16;9.07;;;8.48;;
42146;SDS011;27815;43.410;11.852;2023-06-14T20:51:23;8.75;;;8.23;;
42146;SDS011;27815;43.410;11.852;2023-06-14T20:55:27;8.73;;;8.10;;
42146;SDS011;27815;43.410;11.852;2023-06-14T20:59:33;8.32;;;7.65;;
42146;SDS011;27815;43.410;11.852;2023-06-14T21:03:36;8.25;;;7.75;;
42146;SDS011;27815;43.410;11.852;2023-06-14T21:07:40;8.23;;;7.60;;
42146;SDS011;27815;43.410;11.852;2023-06-14T21:11:44;7.30;;;6.80;;
42146;SDS011;27815;43.410;11.852;2023-06-14T21:15:52;7.25;;;6.75;;
42146;SDS011;27815;43.410;11.852;2023-06-14T21:19:58;7.65;;;7.13;;
42146;SDS011;27815;43.410;11.852;2023-06-14T21:36:00;7.03;;;6.60;;
42146;SDS011;27815;43.410;11.852;2023-06-14T21:41:00;6.00;;;5.55;;
42146;SDS011;27815;43.410;11.852;2023-06-14T21:46:38;5.20;;;4.70;;
42146;SDS011;27815;43.410;11.852;2023-06-14T21:52:06;5.70;;;5.03;;
42146;SDS011;27815;43.410;11.852;2023-06-14T21:58:13;4.18;;;3.88;;
42146;SDS011;27815;43.410;11.852;2023-06-14T22:04:22;4.57;;;4.18;;
42146;SDS011;27815;43.410;11.852;2023-06-14T22:27:58;7.32;;;5.32;;
42146;SDS011;27815;43.410;11.852;2023-06-14T22:34:44;5.32;;;4.93;;
42146;SDS011;27815;43.410;11.852;2023-06-14T22:40:16;5.40;;;5.00;;
42146;SDS011;27815;43.410;11.852;2023-06-14T22:45:26;5.95;;;5.55;;
42146;SDS011;27815;43.410;11.852;2023-06-14T22:49:58;6.55;;;5.95;;
42146;SDS011;27815;43.410;11.852;2023-06-14T22:55:00;7.45;;;5.85;;
42146;SDS011;27815;43.410;11.852;2023-06-14T23:17:06;4.85;;;4.45;;
42146;SDS011;27815;43.410;11.852;2023-06-14T23:22:48;5.18;;;4.75;;
